sensor_id;sensor_type;location;lat;lon;timestamp;pressure;altitude;pressure_sealevel;temperature;humidity
41222;BME280;26952;42.884;23.918;2023-04-25T00:01:20;95068.44;;;10.94;100.00
41222;BME280;26952;42.884;23.918;2023-04-25T00:03:47;95037.97;;;10.77;100.00
41222;BME280;26952;42.884;23.918;2023-04-25T00:06:13;95052.28;;;10.82;100.00
41222;BME280;26952;42.884;23.918;2023-04-25T00:08:39;95055.84;;;10.75;100.00
41222;BME280;26952;42.884;23.918;2023-04-25T00:11:04;95076.03;;;10.76;100.00
41222;BME280;26952;42.884;23.918;2023-04-25T00:13:30;95061.53;;;10.72;100.00
41222;BME280;26952;42.884;23.918;2023-04-25T00:15:55;94993.66;;;10.30;100.00
41222;BME280;26952;42.884;23.918;2023-04-25T00:18:25;95059.53;;;10.74;100.00
41222;BME280;26952;42.884;23.918;2023-04-25T00:20:54;95047.31;;;10.73;100.00
41222;BME280;26952;42.884;23.918;2023-04-25T00:23:20;95030.13;;;10.62;100.00
41222;BME280;26952;42.884;23.918;2023-04-25T00:25:47;95052.22;;;10.76;100.00
41222;BME280;26952;42.884;23.918;2023-04-25T00:28:13;95034.84;;;10.67;100.00
41222;BME280;26952;42.884;23.918;2023-04-25T00:30:39;95036.09;;;10.71;100.00
41222;BME280;26952;42.884;23.918;2023-04-25T00:33:05;95057.38;;;10.84;100.00
41222;BME280;26952;42.884;23.918;2023-04-25T00:35:31;95064.25;;;10.78;100.00
41222;BME280;26952;42.884;23.918;2023-04-25T00:37:56;95040.13;;;10.67;100.00
41222;BME280;26952;42.884;23.918;2023-04-25T00:40:22;95054.91;;;10.55;100.00
41222;BME280;26952;42.884;23.918;2023-04-25T00:42:47;95029.59;;;10.46;100.00
41222;BME280;26952;42.884;23.918;2023-04-25T00:45:14;95043.50;;;10.54;100.00
41222;BME280;26952;42.884;23.918;2023-04-25T00:47:41;95057.72;;;10.74;100.00
41222;BME280;26952;42.884;23.918;2023-04-25T00:50:07;95026.44;;;10.57;100.00
41222;BME280;26952;42.884;23.918;2023-04-25T00:52:33;95011.34;;;10.57;100.00
41222;BME280;26952;42.884;23.918;2023-04-25T00:54:59;94998.97;;;10.58;100.00
41222;BME280;26952;42.884;23.918;2023-04-25T00:57:24;94952.63;;;10.41;100.00
41222;BME280;26952;42.884;23.918;2023-04-25T00:59:51;94976.44;;;10.75;100.00
41222;BME280;26952;42.884;23.918;2023-04-25T01:02:18;95003.63;;;10.90;100.00
41222;BME280;26952;42.884;23.918;2023-04-25T01:04:44;94964.72;;;10.84;100.00
41222;BME280;26952;42.884;23.918;2023-04-25T01:07:10;94930.94;;;10.86;100.00
41222;BME280;26952;42.884;23.918;2023-04-25T01:09:35;94941.53;;;10.92;100.00
41222;BME280;26952;42.884;23.918;2023-04-25T01:12:01;94909.50;;;10.74;100.00
41222;BME280;26952;42.884;23.918;2023-04-25T01:14:27;94939.06;;;10.84;100.00
41222;BME280;26952;42.884;23.918;2023-04-25T01:16:52;94919.25;;;10.74;100.00
41222;BME280;26952;42.884;23.918;2023-04-25T01:19:19;94914.38;;;10.77;100.00
41222;BME280;26952;42.884;23.918;2023-04-25T01:21:44;94888.56;;;10.86;100.00
41222;BME280;26952;42.884;23.918;2023-04-25T01:24:10;94895.63;;;10.72;100.00
41222;BME280;26952;42.884;23.918;2023-04-25T01:26:36;94913.28;;;10.65;100.00
41222;BME280;26952;42.884;23.918;2023-04-25T01:29:04;94932.72;;;10.79;100.00
41222;BME280;26952;42.884;23.918;2023-04-25T01:31:30;94924.16;;;10.77;100.00
41222;BME280;26952;42.884;23.918;2023-04-25T01:33:56;94915.03;;;10.86;100.00
41222;BME280;26952;42.884;23.918;2023-04-25T01:36:22;94949.72;;;11.04;100.00
41222;BME280;26952;42.884;23.918;2023-04-25T01:38:47;94955.00;;;11.04;100.00
41222;BME280;26952;42.884;23.918;2023-04-25T01:41:14;94967.72;;;11.15;100.00
41222;BME280;26952;42.884;23.918;2023-04-25T01:43:40;94958.13;;;11.14;100.00
41222;BME280;26952;42.884;23.918;2023-04-25T01:46:05;94955.06;;;11.17;100.00
41222;BME280;26952;42.884;23.918;2023-04-25T01:48:31;94961.16;;;11.11;100.00
41222;BME280;26952;42.884;23.918;2023-04-25T01:50:56;94960.28;;;10.97;100.00
41222;BME280;26952;42.884;23.918;2023-04-25T01:53:22;94975.78;;;10.94;100.00
41222;BME280;26952;42.884;23.918;2023-04-25T01:55:47;94965.06;;;10.74;100.00
41222;BME280;26952;42.884;23.918;2023-04-25T01:58:13;94901.78;;;10.39;100.00
41222;BME280;26952;42.884;23.918;2023-04-25T02:00:39;94952.41;;;10.70;100.00
41222;BME280;26952;42.884;23.918;2023-04-25T02:03:06;94946.13;;;10.71;100.00
41222;BME280;26952;42.884;23.918;2023-04-25T02:05:38;94944.09;;;10.73;100.00
41222;BME280;26952;42.884;23.918;2023-04-25T02:08:07;94934.06;;;10.68;100.00
41222;BME280;26952;42.884;23.918;2023-04-25T02:10:33;94921.00;;;10.60;100.00
41222;BME280;26952;42.884;23.918;2023-04-25T02:12:59;94906.75;;;10.55;100.00
41222;BME280;26952;42.884;23.918;2023-04-25T02:15:25;94925.56;;;10.73;100.00
41222;BME280;26952;42.884;23.918;2023-04-25T02:17:50;94928.75;;;10.62;100.00
41222;BME280;26952;42.884;23.918;2023-04-25T02:20:18;94905.47;;;10.51;100.00
41222;BME280;26952;42.884;23.918;2023-04-25T02:22:45;94886.66;;;10.33;100.00
41222;BME280;26952;42.884;23.918;2023-04-25T02:25:11;94903.16;;;10.35;100.00
41222;BME280;26952;42.884;23.918;2023-04-25T02:27:36;94852.53;;;9.82;100.00
41222;BME280;26952;42.884;23.918;2023-04-25T02:30:02;94897.38;;;9.97;100.00
41222;BME280;26952;42.884;23.918;2023-04-25T02:32:28;94853.31;;;9.76;100.00
41222;BME280;26952;42.884;23.918;2023-04-25T02:34:53;94915.06;;;10.18;100.00
41222;BME280;26952;42.884;23.918;2023-04-25T02:37:19;94892.94;;;10.04;100.00
41222;BME280;26952;42.884;23.918;2023-04-25T02:39:44;94887.19;;;9.94;100.00
41222;BME280;26952;42.884;23.918;2023-04-25T02:42:10;94906.75;;;10.00;100.00
41222;BME280;26952;42.884;23.918;2023-04-25T02:44:35;94902.78;;;9.89;100.00
41222;BME280;26952;42.884;23.918;2023-04-25T02:47:00;94900.78;;;9.91;100.00
41222;BME280;26952;42.884;23.918;2023-04-25T02:49:26;94904.25;;;9.92;100.00
41222;BME280;26952;42.884;23.918;2023-04-25T02:51:51;94909.16;;;9.95;100.00
41222;BME280;26952;42.884;23.918;2023-04-25T02:54:17;94899.19;;;9.69;100.00
41222;BME280;26952;42.884;23.918;2023-04-25T02:56:42;94907.56;;;9.51;100.00
41222;BME280;26952;42.884;23.918;2023-04-25T02:59:07;94921.84;;;9.57;100.00
41222;BME280;26952;42.884;23.918;2023-04-25T03:01:33;94889.31;;;9.35;100.00
41222;BME280;26952;42.884;23.918;2023-04-25T03:03:58;94896.00;;;9.31;100.00
41222;BME280;26952;42.884;23.918;2023-04-25T03:06:24;94911.84;;;9.31;100.00
41222;BME280;26952;42.884;23.918;2023-04-25T03:08:49;94913.19;;;9.27;100.00
41222;BME280;26952;42.884;23.918;2023-04-25T03:11:15;94905.59;;;9.18;100.00
41222;BME280;26952;42.884;23.918;2023-04-25T03:13:40;94908.03;;;9.19;100.00
41222;BME280;26952;42.884;23.918;2023-04-25T03:16:05;94934.09;;;9.22;100.00
41222;BME280;26952;42.884;23.918;2023-04-25T03:18:31;94898.09;;;9.00;100.00
41222;BME280;26952;42.884;23.918;2023-04-25T03:20:56;94910.41;;;9.14;100.00
41222;BME280;26952;42.884;23.918;2023-04-25T03:23:22;94931.25;;;9.24;100.00
41222;BME280;26952;42.884;23.918;2023-04-25T03:25:47;94910.50;;;9.21;100.00
41222;BME280;26952;42.884;23.918;2023-04-25T03:28:13;94912.00;;;9.09;100.00
41222;BME280;26952;42.884;23.918;2023-04-25T03:30:38;94847.56;;;8.82;100.00
41222;BME280;26952;42.884;23.918;2023-04-25T03:33:04;94918.41;;;9.21;100.00
41222;BME280;26952;42.884;23.918;2023-04-25T03:35:29;94900.50;;;9.16;100.00
41222;BME280;26952;42.884;23.918;2023-04-25T03:37:55;94919.25;;;9.21;100.00
41222;BME280;26952;42.884;23.918;2023-04-25T03:40:20;94917.22;;;9.02;100.00
41222;BME280;26952;42.884;23.918;2023-04-25T03:42:46;94912.75;;;9.03;100.00
41222;BME280;26952;42.884;23.918;2023-04-25T03:45:11;94927.09;;;9.15;100.00
41222;BME280;26952;42.884;23.918;2023-04-25T03:47:36;94908.47;;;9.02;100.00
41222;BME280;26952;42.884;23.918;2023-04-25T03:50:02;94931.41;;;9.01;100.00
41222;BME280;26952;42.884;23.918;2023-04-25T03:52:28;94909.78;;;8.91;100.00
41222;BME280;26952;42.884;23.918;2023-04-25T03:54:53;94920.78;;;8.95;100.00
41222;BME280;26952;42.884;23.918;2023-04-25T03:57:19;94928.66;;;9.09;100.00
41222;BME280;26952;42.884;23.918;2023-04-25T03:59:44;94931.53;;;9.14;100.00
41222;BME280;26952;42.884;23.918;2023-04-25T04:02:10;94939.53;;;9.21;100.00
41222;BME280;26952;42.884;23.918;2023-04-25T04:04:35;94906.66;;;9.02;100.00
41222;BME280;26952;42.884;23.918;2023-04-25T04:07:01;94942.63;;;9.24;100.00
41222;BME280;26952;42.884;23.918;2023-04-25T04:09:27;94929.81;;;9.63;100.00
41222;BME280;26952;42.884;23.918;2023-04-25T04:11:52;94937.94;;;10.66;100.00
41222;BME280;26952;42.884;23.918;2023-04-25T04:14:18;94933.25;;;11.69;100.00
41222;BME280;26952;42.884;23.918;2023-04-25T04:16:43;94921.38;;;12.69;100.00
41222;BME280;26952;42.884;23.918;2023-04-25T04:19:09;94918.63;;;13.46;100.00
41222;BME280;26952;42.884;23.918;2023-04-25T04:21:35;94924.56;;;14.35;100.00
41222;BME280;26952;42.884;23.918;2023-04-25T04:24:00;94929.16;;;14.88;92.44
41222;BME280;26952;42.884;23.918;2023-04-25T04:26:26;94918.06;;;15.46;86.80
41222;BME280;26952;42.884;23.918;2023-04-25T04:28:51;94924.66;;;15.73;84.34
41222;BME280;26952;42.884;23.918;2023-04-25T04:31:19;94917.25;;;16.27;79.67
41222;BME280;26952;42.884;23.918;2023-04-25T04:33:45;94924.50;;;16.73;72.76
41222;BME280;26952;42.884;23.918;2023-04-25T04:36:11;94930.41;;;16.98;72.72
41222;BME280;26952;42.884;23.918;2023-04-25T04:38:37;94933.34;;;16.85;73.46
41222;BME280;26952;42.884;23.918;2023-04-25T04:41:02;94924.72;;;16.72;74.07
41222;BME280;26952;42.884;23.918;2023-04-25T04:43:28;94930.19;;;16.65;74.87
41222;BME280;26952;42.884;23.918;2023-04-25T04:45:55;94930.25;;;16.24;75.07
41222;BME280;26952;42.884;23.918;2023-04-25T04:48:21;94951.00;;;15.81;78.24
41222;BME280;26952;42.884;23.918;2023-04-25T04:50:47;94932.13;;;15.53;81.80
41222;BME280;26952;42.884;23.918;2023-04-25T04:53:13;94949.59;;;15.49;86.42
41222;BME280;26952;42.884;23.918;2023-04-25T04:55:38;94919.78;;;15.04;88.21
41222;BME280;26952;42.884;23.918;2023-04-25T04:58:04;94934.94;;;15.03;86.39
41222;BME280;26952;42.884;23.918;2023-04-25T05:00:29;94937.72;;;14.72;86.41
41222;BME280;26952;42.884;23.918;2023-04-25T05:02:55;94938.84;;;14.40;92.87
41222;BME280;26952;42.884;23.918;2023-04-25T05:05:21;94951.50;;;14.45;94.36
41222;BME280;26952;42.884;23.918;2023-04-25T05:07:47;94938.34;;;14.50;99.64
41222;BME280;26952;42.884;23.918;2023-04-25T05:10:12;94939.81;;;14.88;99.92
41222;BME280;26952;42.884;23.918;2023-04-25T05:12:37;94947.28;;;15.34;95.80
41222;BME280;26952;42.884;23.918;2023-04-25T05:15:03;94947.81;;;15.61;89.75
41222;BME280;26952;42.884;23.918;2023-04-25T05:17:28;94919.03;;;15.63;86.21
41222;BME280;26952;42.884;23.918;2023-04-25T05:19:54;94926.47;;;15.61;89.84
41222;BME280;26952;42.884;23.918;2023-04-25T05:22:19;94926.44;;;15.90;93.28
41222;BME280;26952;42.884;23.918;2023-04-25T05:24:45;94924.53;;;16.09;92.14
41222;BME280;26952;42.884;23.918;2023-04-25T05:27:10;94923.81;;;16.02;91.25
41222;BME280;26952;42.884;23.918;2023-04-25T05:29:35;94923.66;;;15.85;89.47
41222;BME280;26952;42.884;23.918;2023-04-25T05:32:01;94925.28;;;15.57;93.20
41222;BME280;26952;42.884;23.918;2023-04-25T05:34:26;94922.41;;;15.40;96.90
41222;BME280;26952;42.884;23.918;2023-04-25T05:36:52;94923.16;;;15.47;99.19
41222;BME280;26952;42.884;23.918;2023-04-25T05:39:17;94913.91;;;15.50;93.55
41222;BME280;26952;42.884;23.918;2023-04-25T05:41:43;94909.38;;;15.50;95.83
41222;BME280;26952;42.884;23.918;2023-04-25T05:44:08;94922.78;;;15.25;97.08
41222;BME280;26952;42.884;23.918;2023-04-25T05:46:34;94903.91;;;14.30;100.00
41222;BME280;26952;42.884;23.918;2023-04-25T05:48:59;94932.94;;;14.38;100.00
41222;BME280;26952;42.884;23.918;2023-04-25T05:51:25;94920.94;;;14.29;100.00
41222;BME280;26952;42.884;23.918;2023-04-25T05:53:51;94902.09;;;14.24;100.00
41222;BME280;26952;42.884;23.918;2023-04-25T05:56:16;94923.47;;;14.18;100.00
41222;BME280;26952;42.884;23.918;2023-04-25T05:58:42;94921.72;;;13.74;100.00
41222;BME280;26952;42.884;23.918;2023-04-25T06:01:07;94912.63;;;13.57;100.00
41222;BME280;26952;42.884;23.918;2023-04-25T06:03:34;94864.47;;;13.03;100.00
41222;BME280;26952;42.884;23.918;2023-04-25T06:05:59;94880.56;;;13.14;100.00
41222;BME280;26952;42.884;23.918;2023-04-25T06:08:24;94915.34;;;13.44;100.00
41222;BME280;26952;42.884;23.918;2023-04-25T06:10:50;94912.47;;;13.14;100.00
41222;BME280;26952;42.884;23.918;2023-04-25T06:13:15;94932.44;;;13.23;100.00
41222;BME280;26952;42.884;23.918;2023-04-25T06:15:41;94920.38;;;13.27;100.00
41222;BME280;26952;42.884;23.918;2023-04-25T06:18:06;94911.50;;;13.40;100.00
41222;BME280;26952;42.884;23.918;2023-04-25T06:20:32;94927.47;;;13.71;100.00
41222;BME280;26952;42.884;23.918;2023-04-25T06:22:57;94934.50;;;13.90;100.00
41222;BME280;26952;42.884;23.918;2023-04-25T06:25:22;94892.03;;;13.77;100.00
41222;BME280;26952;42.884;23.918;2023-04-25T06:27:48;94942.84;;;14.31;100.00
41222;BME280;26952;42.884;23.918;2023-04-25T06:30:13;94949.19;;;14.24;100.00
41222;BME280;26952;42.884;23.918;2023-04-25T06:32:40;94926.44;;;14.03;100.00
41222;BME280;26952;42.884;23.918;2023-04-25T06:35:06;94932.63;;;13.97;100.00
41222;BME280;26952;42.884;23.918;2023-04-25T06:37:31;94924.56;;;14.10;100.00
41222;BME280;26952;42.884;23.918;2023-04-25T06:39:57;94952.72;;;14.49;99.81
41222;BME280;26952;42.884;23.918;2023-04-25T06:42:22;94931.22;;;14.68;100.00
41222;BME280;26952;42.884;23.918;2023-04-25T06:44:47;94917.69;;;14.70;85.07
41222;BME280;26952;42.884;23.918;2023-04-25T06:47:13;94927.97;;;14.66;87.60
41222;BME280;26952;42.884;23.918;2023-04-25T06:49:39;94950.69;;;14.87;87.58
41222;BME280;26952;42.884;23.918;2023-04-25T06:52:04;94915.56;;;14.78;86.14
41222;BME280;26952;42.884;23.918;2023-04-25T06:54:30;94930.06;;;15.00;85.29
41222;BME280;26952;42.884;23.918;2023-04-25T06:56:56;94934.28;;;15.08;82.85
41222;BME280;26952;42.884;23.918;2023-04-25T06:59:22;94939.81;;;15.06;84.61
41222;BME280;26952;42.884;23.918;2023-04-25T07:01:47;94900.28;;;14.85;85.63
41222;BME280;26952;42.884;23.918;2023-04-25T07:04:12;94943.97;;;15.39;87.94
41222;BME280;26952;42.884;23.918;2023-04-25T07:06:38;94957.81;;;15.65;82.66
41222;BME280;26952;42.884;23.918;2023-04-25T07:09:08;94953.72;;;15.92;85.05
41222;BME280;26952;42.884;23.918;2023-04-25T07:11:35;94931.16;;;16.06;91.64
41222;BME280;26952;42.884;23.918;2023-04-25T07:14:00;94916.53;;;16.20;88.41
41222;BME280;26952;42.884;23.918;2023-04-25T07:16:26;94953.47;;;16.76;86.33
41222;BME280;26952;42.884;23.918;2023-04-25T07:18:51;94948.66;;;17.01;85.63
41222;BME280;26952;42.884;23.918;2023-04-25T07:21:16;94949.13;;;17.21;75.85
41222;BME280;26952;42.884;23.918;2023-04-25T07:23:42;94942.44;;;17.35;74.35
41222;BME280;26952;42.884;23.918;2023-04-25T07:26:07;94932.66;;;17.52;70.84
41222;BME280;26952;42.884;23.918;2023-04-25T07:28:33;94921.94;;;17.52;73.90
41222;BME280;26952;42.884;23.918;2023-04-25T07:30:58;94933.63;;;17.23;66.00
41222;BME280;26952;42.884;23.918;2023-04-25T07:33:24;94943.56;;;17.62;66.48
41222;BME280;26952;42.884;23.918;2023-04-25T07:35:49;94939.34;;;17.94;69.50
41222;BME280;26952;42.884;23.918;2023-04-25T07:38:15;94923.75;;;17.75;63.98
41222;BME280;26952;42.884;23.918;2023-04-25T07:40:40;94933.44;;;17.64;64.79
41222;BME280;26952;42.884;23.918;2023-04-25T07:43:06;94933.81;;;17.56;65.77
41222;BME280;26952;42.884;23.918;2023-04-25T07:45:31;94919.09;;;17.70;70.34
41222;BME280;26952;42.884;23.918;2023-04-25T07:47:56;94931.78;;;17.12;70.89
41222;BME280;26952;42.884;23.918;2023-04-25T07:50:22;94925.41;;;17.13;68.33
41222;BME280;26952;42.884;23.918;2023-04-25T07:52:47;94922.00;;;17.69;68.83
41222;BME280;26952;42.884;23.918;2023-04-25T07:55:13;94930.94;;;17.23;67.89
41222;BME280;26952;42.884;23.918;2023-04-25T07:57:38;94933.53;;;17.18;71.83
41222;BME280;26952;42.884;23.918;2023-04-25T08:00:04;94942.50;;;16.89;74.59
41222;BME280;26952;42.884;23.918;2023-04-25T08:02:34;94945.16;;;17.12;73.55
41222;BME280;26952;42.884;23.918;2023-04-25T08:04:59;94945.28;;;16.94;69.32
41222;BME280;26952;42.884;23.918;2023-04-25T08:07:24;94937.97;;;16.90;71.13
41222;BME280;26952;42.884;23.918;2023-04-25T08:09:50;94946.59;;;16.92;68.05
41222;BME280;26952;42.884;23.918;2023-04-25T08:12:15;94946.59;;;16.80;71.55
41222;BME280;26952;42.884;23.918;2023-04-25T08:14:41;94958.53;;;16.89;70.87
41222;BME280;26952;42.884;23.918;2023-04-25T08:17:06;94936.38;;;16.77;69.71
41222;BME280;26952;42.884;23.918;2023-04-25T08:19:32;94946.22;;;16.65;72.98
41222;BME280;26952;42.884;23.918;2023-04-25T08:21:57;94929.69;;;17.14;75.89
41222;BME280;26952;42.884;23.918;2023-04-25T08:24:23;94950.69;;;18.13;73.55
41222;BME280;26952;42.884;23.918;2023-04-25T08:26:48;94956.44;;;18.66;70.12
41222;BME280;26952;42.884;23.918;2023-04-25T08:29:14;94935.97;;;18.44;61.41
41222;BME280;26952;42.884;23.918;2023-04-25T08:31:39;94926.63;;;18.63;64.11
41222;BME280;26952;42.884;23.918;2023-04-25T08:34:05;94938.31;;;18.90;68.19
41222;BME280;26952;42.884;23.918;2023-04-25T08:36:31;94952.81;;;18.28;56.82
41222;BME280;26952;42.884;23.918;2023-04-25T08:38:56;94939.94;;;17.68;61.98
41222;BME280;26952;42.884;23.918;2023-04-25T08:41:22;94939.09;;;17.79;60.55
41222;BME280;26952;42.884;23.918;2023-04-25T08:43:48;94938.41;;;17.72;63.75
41222;BME280;26952;42.884;23.918;2023-04-25T08:46:19;94924.34;;;17.93;66.90
41222;BME280;26952;42.884;23.918;2023-04-25T08:48:45;94936.22;;;18.59;60.45
41222;BME280;26952;42.884;23.918;2023-04-25T08:51:22;94949.06;;;18.29;54.80
41222;BME280;26952;42.884;23.918;2023-04-25T08:53:51;94935.13;;;18.43;56.43
41222;BME280;26952;42.884;23.918;2023-04-25T08:56:17;94930.53;;;17.94;58.21
41222;BME280;26952;42.884;23.918;2023-04-25T08:58:47;94919.75;;;18.06;58.07
41222;BME280;26952;42.884;23.918;2023-04-25T09:01:13;94939.53;;;18.05;56.61
41222;BME280;26952;42.884;23.918;2023-04-25T09:03:38;94937.63;;;18.17;57.75
41222;BME280;26952;42.884;23.918;2023-04-25T09:06:03;94942.63;;;17.68;56.92
41222;BME280;26952;42.884;23.918;2023-04-25T09:08:29;94905.88;;;17.13;61.20
41222;BME280;26952;42.884;23.918;2023-04-25T09:10:55;94944.03;;;17.08;63.37
41222;BME280;26952;42.884;23.918;2023-04-25T09:13:26;94946.28;;;16.24;66.96
41222;BME280;26952;42.884;23.918;2023-04-25T09:15:56;94959.09;;;16.04;70.98
41222;BME280;26952;42.884;23.918;2023-04-25T09:18:26;94944.47;;;15.65;71.88
41222;BME280;26952;42.884;23.918;2023-04-25T09:21:09;94955.66;;;15.74;86.85
41222;BME280;26952;42.884;23.918;2023-04-25T09:23:45;94959.28;;;15.91;96.30
41222;BME280;26952;42.884;23.918;2023-04-25T09:26:14;94935.09;;;15.74;100.00
41222;BME280;26952;42.884;23.918;2023-04-25T09:28:40;94940.94;;;15.83;100.00
41222;BME280;26952;42.884;23.918;2023-04-25T09:31:09;94885.34;;;15.50;100.00
41222;BME280;26952;42.884;23.918;2023-04-25T09:33:35;94921.22;;;15.54;100.00
41222;BME280;26952;42.884;23.918;2023-04-25T09:36:09;94906.84;;;15.19;100.00
41222;BME280;26952;42.884;23.918;2023-04-25T09:38:43;94910.66;;;15.11;100.00
41222;BME280;26952;42.884;23.918;2023-04-25T09:41:10;94916.56;;;15.32;100.00
41222;BME280;26952;42.884;23.918;2023-04-25T09:43:36;94930.34;;;15.47;100.00
41222;BME280;26952;42.884;23.918;2023-04-25T09:46:02;94916.13;;;15.35;100.00
41222;BME280;26952;42.884;23.918;2023-04-25T09:48:32;94914.75;;;15.62;100.00
41222;BME280;26952;42.884;23.918;2023-04-25T09:51:10;94901.31;;;15.39;100.00
41222;BME280;26952;42.884;23.918;2023-04-25T09:53:37;94917.59;;;15.49;100.00
41222;BME280;26952;42.884;23.918;2023-04-25T09:56:09;94905.75;;;15.45;100.00
41222;BME280;26952;42.884;23.918;2023-04-25T09:58:36;94926.47;;;15.61;100.00
41222;BME280;26952;42.884;23.918;2023-04-25T10:01:04;94945.81;;;15.86;100.00
41222;BME280;26952;42.884;23.918;2023-04-25T10:03:32;94934.16;;;16.51;100.00
41222;BME280;26952;42.884;23.918;2023-04-25T10:06:04;94906.69;;;17.13;100.00
41222;BME280;26952;42.884;23.918;2023-04-25T10:08:33;94915.84;;;17.68;80.81
41222;BME280;26952;42.884;23.918;2023-04-25T10:11:04;94898.72;;;18.31;86.38
41222;BME280;26952;42.884;23.918;2023-04-25T10:13:31;94887.06;;;18.70;77.74
41222;BME280;26952;42.884;23.918;2023-04-25T10:16:03;94899.34;;;19.04;75.57
41222;BME280;26952;42.884;23.918;2023-04-25T10:18:30;94874.69;;;19.07;73.04
41222;BME280;26952;42.884;23.918;2023-04-25T10:20:59;94888.03;;;19.40;69.26
41222;BME280;26952;42.884;23.918;2023-04-25T10:23:25;94889.59;;;19.36;61.26
41222;BME280;26952;42.884;23.918;2023-04-25T10:25:52;94887.47;;;19.38;70.14
41222;BME280;26952;42.884;23.918;2023-04-25T10:28:18;94904.16;;;19.88;81.88
41222;BME280;26952;42.884;23.918;2023-04-25T10:31:03;94879.78;;;20.21;73.09
41222;BME280;26952;42.884;23.918;2023-04-25T10:33:33;94875.94;;;19.86;67.20
41222;BME280;26952;42.884;23.918;2023-04-25T10:36:12;94873.66;;;19.78;65.58
41222;BME280;26952;42.884;23.918;2023-04-25T10:38:38;94880.78;;;19.89;75.33
41222;BME280;26952;42.884;23.918;2023-04-25T10:41:05;94877.63;;;19.70;67.28
41222;BME280;26952;42.884;23.918;2023-04-25T10:46:01;94865.78;;;19.23;82.55
41222;BME280;26952;42.884;23.918;2023-04-25T10:48:30;94854.69;;;19.36;79.80
41222;BME280;26952;42.884;23.918;2023-04-25T10:53:34;94835.97;;;19.41;52.23
41222;BME280;26952;42.884;23.918;2023-04-25T10:56:00;94844.31;;;18.80;52.35
41222;BME280;26952;42.884;23.918;2023-04-25T10:58:25;94849.38;;;18.98;54.20
41222;BME280;26952;42.884;23.918;2023-04-25T11:00:51;94837.19;;;18.36;51.57
41222;BME280;26952;42.884;23.918;2023-04-25T11:03:17;94849.75;;;18.35;51.42
41222;BME280;26952;42.884;23.918;2023-04-25T11:05:44;94836.22;;;18.58;53.13
41222;BME280;26952;42.884;23.918;2023-04-25T11:08:11;94840.19;;;18.94;55.64
41222;BME280;26952;42.884;23.918;2023-04-25T11:10:37;94837.31;;;19.22;53.73
41222;BME280;26952;42.884;23.918;2023-04-25T11:13:05;94846.00;;;19.07;51.35
41222;BME280;26952;42.884;23.918;2023-04-25T11:15:30;94833.78;;;18.40;51.55
41222;BME280;26952;42.884;23.918;2023-04-25T11:17:56;94845.97;;;18.31;50.04
41222;BME280;26952;42.884;23.918;2023-04-25T11:20:22;94864.97;;;18.13;52.24
41222;BME280;26952;42.884;23.918;2023-04-25T11:22:50;94871.63;;;18.11;56.54
41222;BME280;26952;42.884;23.918;2023-04-25T11:25:16;94906.66;;;17.92;54.41
41222;BME280;26952;42.884;23.918;2023-04-25T11:27:58;94900.31;;;17.03;62.11
41222;BME280;26952;42.884;23.918;2023-04-25T11:30:25;94920.59;;;16.23;72.65
41222;BME280;26952;42.884;23.918;2023-04-25T11:32:50;94919.38;;;15.96;81.22
41222;BME280;26952;42.884;23.918;2023-04-25T11:35:19;94932.56;;;15.32;90.08
41222;BME280;26952;42.884;23.918;2023-04-25T11:37:46;94908.81;;;14.76;97.18
41222;BME280;26952;42.884;23.918;2023-04-25T11:40:11;94877.25;;;14.55;96.94
41222;BME280;26952;42.884;23.918;2023-04-25T11:42:38;94889.38;;;14.33;100.00
41222;BME280;26952;42.884;23.918;2023-04-25T11:45:04;94892.88;;;14.27;100.00
41222;BME280;26952;42.884;23.918;2023-04-25T11:47:31;94880.34;;;14.34;100.00
41222;BME280;26952;42.884;23.918;2023-04-25T11:49:58;94852.06;;;14.57;100.00
41222;BME280;26952;42.884;23.918;2023-04-25T11:52:29;94856.44;;;15.17;100.00
41222;BME280;26952;42.884;23.918;2023-04-25T11:54:59;94855.56;;;15.94;100.00
41222;BME280;26952;42.884;23.918;2023-04-25T11:57:25;94843.28;;;16.74;100.00
41222;BME280;26952;42.884;23.918;2023-04-25T11:59:50;94845.88;;;17.48;100.00
41222;BME280;26952;42.884;23.918;2023-04-25T12:02:25;94848.09;;;17.96;97.57
41222;BME280;26952;42.884;23.918;2023-04-25T12:04:51;94836.41;;;18.02;95.14
41222;BME280;26952;42.884;23.918;2023-04-25T12:07:17;94840.75;;;16.56;79.56
41222;BME280;26952;42.884;23.918;2023-04-25T12:09:51;94827.94;;;16.12;89.64
41222;BME280;26952;42.884;23.918;2023-04-25T12:12:17;94829.25;;;16.21;83.75
41222;BME280;26952;42.884;23.918;2023-04-25T12:14:46;94833.78;;;16.55;85.82
41222;BME280;26952;42.884;23.918;2023-04-25T12:17:16;94815.22;;;16.48;74.43
41222;BME280;26952;42.884;23.918;2023-04-25T12:19:42;94819.72;;;17.11;66.60
41222;BME280;26952;42.884;23.918;2023-04-25T12:22:23;94814.59;;;17.65;65.75
41222;BME280;26952;42.884;23.918;2023-04-25T12:24:48;94810.25;;;17.92;59.39
41222;BME280;26952;42.884;23.918;2023-04-25T12:27:15;94790.28;;;18.17;58.86
41222;BME280;26952;42.884;23.918;2023-04-25T12:29:53;94810.25;;;18.42;57.42
41222;BME280;26952;42.884;23.918;2023-04-25T12:32:19;94828.25;;;18.63;54.85
41222;BME280;26952;42.884;23.918;2023-04-25T12:34:45;94817.16;;;18.76;54.14
41222;BME280;26952;42.884;23.918;2023-04-25T12:37:10;94795.16;;;18.96;57.82
41222;BME280;26952;42.884;23.918;2023-04-25T12:39:36;94817.75;;;19.43;56.07
41222;BME280;26952;42.884;23.918;2023-04-25T12:42:02;94823.88;;;19.92;51.50
41222;BME280;26952;42.884;23.918;2023-04-25T12:44:28;94806.53;;;20.09;52.25
41222;BME280;26952;42.884;23.918;2023-04-25T12:46:54;94811.75;;;19.36;51.32